Bristol, Colorado
Current Conditions -  °F | °C
As of 7:35 PM on Sunday 23 Nov 2014 (Local Time) from K3K3 Reporting Station
Clear Clear  
Wind Chill: 23°   Ceiling: Unl
Heat Index: 32°   Visibility: 10mi
Dew Point: 16°   Wind: 13mph
Humidity: 51%   Direction: 320°NW
Pressure: 29.84"   Gusts: NA
Location:  37.8253°N, 102.163°W
Report Text: K3K3 240235Z AUTO 32011KT 10SM CLR 00/M09 A2984 RMK AO2
Loading
Personal Weather Stations






























Interactive Weather Map New forecast layout! Learn more

10-Day Weather Forecast

Advertisements
Track Severe Weather on mobile